createdAt,value
2024-04-04T00:01:08.240Z,42.12
2024-04-04T00:03:47.496Z,42.12
2024-04-04T00:06:15.755Z,42.13
2024-04-04T00:08:45.048Z,42.06
2024-04-04T00:11:18.220Z,42.08
2024-04-04T00:13:47.825Z,41.93
2024-04-04T00:16:15.148Z,41.88
2024-04-04T00:18:42.812Z,41.94
2024-04-04T00:21:09.376Z,42.00
2024-04-04T00:23:38.669Z,42.20
2024-04-04T00:26:05.864Z,42.09
2024-04-04T00:28:33.598Z,41.98
2024-04-04T00:31:00.636Z,42.12
2024-04-04T00:33:29.771Z,42.31
2024-04-04T00:35:56.821Z,42.06
2024-04-04T00:38:23.734Z,41.74
2024-04-04T00:40:50.581Z,41.63
2024-04-04T00:43:17.124Z,41.91
2024-04-04T00:45:44.517Z,41.98
2024-04-04T00:48:11.792Z,42.02
2024-04-04T00:50:43.221Z,41.81
2024-04-04T00:53:11.396Z,41.93
2024-04-04T00:55:40.381Z,42.22
2024-04-04T00:58:11.075Z,42.31
2024-04-04T01:00:37.737Z,42.34
2024-04-04T01:03:06.115Z,42.34
2024-04-04T01:05:37.872Z,42.31
2024-04-04T01:08:08.246Z,42.47
2024-04-04T01:10:36.201Z,42.32
2024-04-04T01:13:04.217Z,42.60
2024-04-04T01:15:30.732Z,42.24
2024-04-04T01:18:00.543Z,42.02
2024-04-04T01:20:27.996Z,41.73
2024-04-04T01:22:55.305Z,41.96
2024-04-04T01:25:23.747Z,42.36
2024-04-04T01:27:53.639Z,42.55
2024-04-04T01:30:20.497Z,42.77
2024-04-04T01:32:47.012Z,42.78
2024-04-04T01:35:14.556Z,42.69
2024-04-04T01:37:41.118Z,42.57
2024-04-04T01:40:09.572Z,42.45
2024-04-04T01:42:38.254Z,42.29
2024-04-04T01:45:05.958Z,42.26
2024-04-04T01:47:32.441Z,42.28
2024-04-04T01:49:59.157Z,42.52
2024-04-04T01:52:26.320Z,42.86
2024-04-04T01:54:53.763Z,42.67
2024-04-04T01:57:20.645Z,42.68
2024-04-04T01:59:47.922Z,42.57
2024-04-04T02:02:14.477Z,42.84
2024-04-04T02:04:42.008Z,43.10
2024-04-04T02:07:10.770Z,43.09
2024-04-04T02:09:38.435Z,42.60
2024-04-04T02:12:10.147Z,42.68
2024-04-04T02:14:38.641Z,42.88
2024-04-04T02:17:05.587Z,42.97
2024-04-04T02:19:32.844Z,42.99
2024-04-04T02:22:00.490Z,43.23
2024-04-04T02:24:30.337Z,43.24
2024-04-04T02:26:56.775Z,43.48
2024-04-04T02:29:25.692Z,43.49
2024-04-04T02:31:52.180Z,43.49
2024-04-04T02:34:19.195Z,43.39
2024-04-04T02:36:46.648Z,43.48
2024-04-04T02:39:14.546Z,43.46
2024-04-04T02:41:42.150Z,43.54
2024-04-04T02:44:12.174Z,43.54
2024-04-04T02:46:39.892Z,43.38
2024-04-04T02:49:06.615Z,43.77
2024-04-04T02:51:36.696Z,43.79
2024-04-04T02:54:05.462Z,43.79
2024-04-04T02:56:33.522Z,43.63
2024-04-04T02:59:03.442Z,43.77
2024-04-04T03:01:30.154Z,43.75
2024-04-04T03:04:00.126Z,43.80
2024-04-04T03:06:29.780Z,43.98
2024-04-04T03:08:57.287Z,43.74
2024-04-04T03:11:24.081Z,43.80
2024-04-04T03:13:51.030Z,44.02
2024-04-04T03:16:17.942Z,44.18
2024-04-04T03:18:48.354Z,44.11
2024-04-04T03:21:15.089Z,43.98
2024-04-04T03:23:41.916Z,44.24
2024-04-04T03:26:08.862Z,44.23
2024-04-04T03:28:35.646Z,44.35
2024-04-04T03:31:03.625Z,44.49
2024-04-04T03:33:31.308Z,44.38
2024-04-04T03:36:05.167Z,44.34
2024-04-04T03:38:32.319Z,44.38
2024-04-04T03:41:00.168Z,44.54
2024-04-04T03:43:27.093Z,44.72
2024-04-04T03:45:54.064Z,44.80
2024-04-04T03:48:21.601Z,44.76
2024-04-04T03:50:48.513Z,44.77
2024-04-04T03:53:17.152Z,44.76
2024-04-04T03:55:46.266Z,44.83
2024-04-04T03:58:13.109Z,44.85
2024-04-04T04:00:39.760Z,44.96
2024-04-04T04:03:07.510Z,44.80
2024-04-04T04:05:34.506Z,44.78
2024-04-04T04:08:01.473Z,44.96
2024-04-04T04:10:31.737Z,45.23
2024-04-04T04:12:59.022Z,45.21
2024-04-04T04:15:26.752Z,45.21
2024-04-04T04:17:53.809Z,45.36
2024-04-04T04:20:40.600Z,45.39
2024-04-04T04:23:09.268Z,45.41
2024-04-04T04:25:36.582Z,45.55
2024-04-04T04:28:04.991Z,45.37
2024-04-04T04:30:34.569Z,45.52
2024-04-04T04:33:02.266Z,45.87
2024-04-04T04:35:32.056Z,45.67
2024-04-04T04:37:58.985Z,45.70
2024-04-04T04:40:25.934Z,45.83
2024-04-04T04:42:52.416Z,45.78
2024-04-04T04:45:19.605Z,46.00
2024-04-04T04:47:47.204Z,46.23
2024-04-04T04:50:15.421Z,46.26
2024-04-04T04:52:42.397Z,46.28
2024-04-04T04:55:09.842Z,46.47
2024-04-04T04:57:38.617Z,46.57
2024-04-04T05:00:12.164Z,46.55
2024-04-04T05:02:39.700Z,46.60
2024-04-04T05:05:18.481Z,46.55
2024-04-04T05:07:44.991Z,46.58
2024-04-04T05:10:12.087Z,46.66
2024-04-04T05:12:38.780Z,46.81
2024-04-04T05:15:09.349Z,46.89
2024-04-04T05:17:37.778Z,46.99
2024-04-04T05:20:05.515Z,47.13
2024-04-04T05:22:33.014Z,47.30
2024-04-04T05:24:59.812Z,47.38
2024-04-04T05:27:26.310Z,47.37
2024-04-04T05:29:54.108Z,47.44
2024-04-04T05:32:22.640Z,47.45
2024-04-04T05:34:52.034Z,47.51
2024-04-04T05:37:18.926Z,47.49
2024-04-04T05:39:45.712Z,47.65
2024-04-04T05:42:12.952Z,47.59
2024-04-04T05:44:47.039Z,47.54
2024-04-04T05:47:14.073Z,47.73
2024-04-04T05:49:40.576Z,47.65
2024-04-04T05:52:07.313Z,47.73
2024-04-04T05:54:36.621Z,47.78
2024-04-04T05:57:04.508Z,47.79
2024-04-04T05:59:31.620Z,47.89
2024-04-04T06:01:59.959Z,47.93
2024-04-04T06:04:31.653Z,48.13
2024-04-04T06:07:03.108Z,48.15
2024-04-04T06:09:30.508Z,48.13
2024-04-04T06:11:57.279Z,48.07
2024-04-04T06:14:27.125Z,48.17
2024-04-04T06:16:54.016Z,48.27
2024-04-04T06:19:21.288Z,48.21
2024-04-04T06:21:48.314Z,48.16
2024-04-04T06:24:16.261Z,48.31
2024-04-04T06:26:44.973Z,48.36
2024-04-04T06:29:11.693Z,48.45
2024-04-04T06:31:39.540Z,48.50
2024-04-04T06:34:07.589Z,48.51
2024-04-04T06:36:35.437Z,48.70
2024-04-04T06:39:04.580Z,48.77
2024-04-04T06:41:36.688Z,48.73
2024-04-04T06:44:06.587Z,48.64
2024-04-04T06:46:33.124Z,48.70
2024-04-04T06:49:01.077Z,48.81
2024-04-04T06:51:30.027Z,48.86
2024-04-04T06:53:56.638Z,48.91
2024-04-04T06:56:23.327Z,49.18
2024-04-04T06:58:50.667Z,49.10
2024-04-04T07:01:21.814Z,49.06
2024-04-04T07:03:49.506Z,49.19
2024-04-04T07:06:17.126Z,49.16
2024-04-04T07:08:46.182Z,49.30
2024-04-04T07:11:18.000Z,49.29
2024-04-04T07:13:46.835Z,49.16
2024-04-04T07:16:13.952Z,49.16
2024-04-04T07:18:44.057Z,49.21
2024-04-04T07:21:14.211Z,49.36
2024-04-04T07:23:44.369Z,49.44
2024-04-04T07:26:12.278Z,49.59
2024-04-04T07:28:39.317Z,49.50
2024-04-04T07:31:07.066Z,49.72
2024-04-04T07:33:33.558Z,50.23
2024-04-04T07:36:00.048Z,50.53
2024-04-04T07:38:26.706Z,50.88
2024-04-04T07:40:55.600Z,51.84
2024-04-04T07:43:23.441Z,51.97
2024-04-04T07:45:52.370Z,52.11
2024-04-04T07:48:20.150Z,52.43
2024-04-04T07:50:50.871Z,52.56
2024-04-04T07:53:18.001Z,52.58
2024-04-04T07:55:46.878Z,52.88
2024-04-04T07:58:14.712Z,52.78
2024-04-04T08:00:43.907Z,52.65
2024-04-04T08:03:14.075Z,52.92
2024-04-04T08:05:42.464Z,52.92
2024-04-04T08:08:10.151Z,52.88
2024-04-04T08:10:37.486Z,52.55
2024-04-04T08:13:05.021Z,52.72
2024-04-04T08:15:31.505Z,52.96
2024-04-04T08:17:59.107Z,53.10
2024-04-04T08:20:28.740Z,53.48
2024-04-04T08:22:57.289Z,53.84
2024-04-04T08:25:26.670Z,54.02
2024-04-04T08:27:54.757Z,54.21
2024-04-04T08:30:22.859Z,54.49
2024-04-04T08:32:49.397Z,55.06
2024-04-04T08:35:16.330Z,55.69
2024-04-04T08:37:43.710Z,56.66
2024-04-04T08:40:12.142Z,57.26
2024-04-04T08:42:42.941Z,57.84
2024-04-04T08:45:11.434Z,57.60
2024-04-04T08:47:40.048Z,57.99
2024-04-04T08:50:08.404Z,58.59
2024-04-04T08:52:36.928Z,58.44
2024-04-04T08:55:04.432Z,58.36
2024-04-04T08:57:36.975Z,58.08
2024-04-04T09:00:11.958Z,57.91
2024-04-04T09:02:40.655Z,58.51
2024-04-04T09:05:08.243Z,58.39
2024-04-04T09:07:37.484Z,58.67
2024-04-04T09:10:08.759Z,58.88
2024-04-04T09:12:35.492Z,59.81
2024-04-04T09:15:02.992Z,60.91
2024-04-04T09:17:29.908Z,62.06
2024-04-04T09:19:57.437Z,65.37
2024-04-04T09:22:26.539Z,65.72
2024-04-04T09:25:05.767Z,56.35
2024-04-04T09:27:39.088Z,53.39
2024-04-04T09:30:13.098Z,54.59
2024-04-04T09:32:39.795Z,55.52
2024-04-04T09:35:07.364Z,57.12
2024-04-04T09:37:36.493Z,58.35
2024-04-04T09:40:05.931Z,59.34
2024-04-04T09:42:33.825Z,61.41
2024-04-04T09:45:01.750Z,61.39
2024-04-04T09:47:29.963Z,61.59
2024-04-04T09:49:59.034Z,62.07
2024-04-04T09:52:30.610Z,64.61
2024-04-04T09:55:00.389Z,66.10
2024-04-04T09:57:28.010Z,63.14
2024-04-04T10:00:19.367Z,51.68
2024-04-04T10:03:00.165Z,51.80
2024-04-04T10:05:32.347Z,53.41
2024-04-04T10:08:14.531Z,53.42
2024-04-04T10:10:46.369Z,55.98
2024-04-04T10:13:13.687Z,57.78
2024-04-04T10:15:55.936Z,58.13
2024-04-04T10:18:31.773Z,59.80
2024-04-04T10:21:01.367Z,60.08
2024-04-04T10:23:29.244Z,61.42
2024-04-04T10:26:10.723Z,62.53
2024-04-04T10:28:37.704Z,61.70
2024-04-04T10:31:04.281Z,59.67
2024-04-04T10:33:30.931Z,55.87
2024-04-04T10:36:00.048Z,56.38
2024-04-04T10:38:27.184Z,57.73
2024-04-04T10:40:56.538Z,59.10
2024-04-04T10:43:23.148Z,60.67
2024-04-04T10:45:51.662Z,61.58
2024-04-04T10:48:18.357Z,63.18
2024-04-04T10:50:50.304Z,57.93
2024-04-04T10:53:18.752Z,57.49
2024-04-04T10:55:45.437Z,59.18
2024-04-04T10:58:15.014Z,60.67
2024-04-04T11:00:43.866Z,61.43
2024-04-04T11:03:14.154Z,64.02
2024-04-04T11:05:41.685Z,64.49
2024-04-04T11:08:09.984Z,58.39
2024-04-04T11:10:39.780Z,53.83
2024-04-04T11:13:06.747Z,55.74
2024-04-04T11:15:34.266Z,57.45
2024-04-04T11:18:00.825Z,59.25
2024-04-04T11:20:29.996Z,60.13
2024-04-04T11:22:57.085Z,60.65
2024-04-04T11:25:24.747Z,62.57
2024-04-04T11:27:54.123Z,64.81
2024-04-04T11:30:20.924Z,66.26
2024-04-04T11:32:48.071Z,58.48
2024-04-04T11:35:14.869Z,54.33
2024-04-04T11:37:41.863Z,55.19
2024-04-04T11:40:10.027Z,56.22
2024-04-04T11:42:36.622Z,57.65
2024-04-04T11:45:04.598Z,59.20
2024-04-04T11:47:32.245Z,60.72
2024-04-04T11:49:59.038Z,62.50
2024-04-04T11:52:25.743Z,68.39
2024-04-04T11:54:54.942Z,64.03
2024-04-04T11:57:22.679Z,59.43
2024-04-04T11:59:50.215Z,53.34
2024-04-04T12:02:22.444Z,52.83
2024-04-04T12:04:49.094Z,54.51
2024-04-04T12:07:21.270Z,57.44
2024-04-04T12:09:47.925Z,57.86
2024-04-04T12:12:15.196Z,58.91
2024-04-04T12:14:44.831Z,61.06
2024-04-04T12:17:17.272Z,61.68
2024-04-04T12:19:46.675Z,64.63
2024-04-04T12:22:13.869Z,66.71
2024-04-04T12:24:41.771Z,64.25
2024-04-04T12:27:09.067Z,57.04
2024-04-04T12:29:36.002Z,51.82
2024-04-04T12:32:03.668Z,52.29
2024-04-04T12:34:30.915Z,54.28
2024-04-04T12:37:03.998Z,56.51
2024-04-04T12:39:32.224Z,57.94
2024-04-04T12:41:59.920Z,58.91
2024-04-04T12:44:29.019Z,60.97
2024-04-04T12:46:57.433Z,62.62
2024-04-04T12:49:23.904Z,65.45
2024-04-04T12:51:53.552Z,58.43
2024-04-04T12:54:24.202Z,55.97
2024-04-04T12:56:51.332Z,55.18
2024-04-04T12:59:18.963Z,57.24
2024-04-04T13:01:47.330Z,57.88
2024-04-04T13:04:17.280Z,59.33
2024-04-04T13:06:46.349Z,59.55
2024-04-04T13:09:14.289Z,59.64
2024-04-04T13:11:44.317Z,61.40
2024-04-04T13:14:11.189Z,64.49
2024-04-04T13:16:38.554Z,70.89
2024-04-04T13:19:09.604Z,67.15
2024-04-04T13:21:38.726Z,60.46
2024-04-04T13:24:05.842Z,53.54
2024-04-04T13:26:32.990Z,53.31
2024-04-04T13:28:59.853Z,54.01
2024-04-04T13:31:27.735Z,57.14
2024-04-04T13:33:54.177Z,59.34
2024-04-04T13:36:21.410Z,59.53
2024-04-04T13:38:56.054Z,59.85
2024-04-04T13:41:29.220Z,62.01
2024-04-04T13:44:05.306Z,64.07
2024-04-04T13:46:32.840Z,61.19
2024-04-04T13:49:02.134Z,54.91
2024-04-04T13:51:28.948Z,54.88
2024-04-04T13:53:56.200Z,57.13
2024-04-04T13:56:23.001Z,57.57
2024-04-04T13:58:52.313Z,59.27
2024-04-04T14:01:18.930Z,59.59
2024-04-04T14:03:49.007Z,61.09
2024-04-04T14:06:20.509Z,64.65
2024-04-04T14:08:50.726Z,69.03
2024-04-04T14:11:19.715Z,65.25
2024-04-04T14:13:47.901Z,58.14
2024-04-04T14:16:16.448Z,51.08
2024-04-04T14:18:57.129Z,52.46
2024-04-04T14:21:32.795Z,52.71
2024-04-04T14:24:02.685Z,53.58
2024-04-04T14:26:30.401Z,55.62
2024-04-04T14:29:00.229Z,57.78
2024-04-04T14:31:30.366Z,59.72
2024-04-04T14:33:59.041Z,61.47
2024-04-04T14:36:26.273Z,60.02
2024-04-04T14:38:54.919Z,61.76
2024-04-04T14:41:22.448Z,65.95
2024-04-04T14:43:51.604Z,67.93
2024-04-04T14:46:19.174Z,64.10
2024-04-04T14:48:48.518Z,62.02
2024-04-04T14:51:15.601Z,55.19
2024-04-04T14:53:54.960Z,50.66
2024-04-04T14:56:22.177Z,50.66
2024-04-04T14:58:49.202Z,52.47
2024-04-04T15:01:18.729Z,52.92
2024-04-04T15:03:49.361Z,55.12
2024-04-04T15:06:17.863Z,57.40
2024-04-04T15:08:48.534Z,58.99
2024-04-04T15:11:17.863Z,60.41
2024-04-04T15:13:45.418Z,60.36
2024-04-04T15:16:14.192Z,62.25
2024-04-04T15:18:41.066Z,67.06
2024-04-04T15:23:52.052Z,56.38
2024-04-04T15:26:19.506Z,55.11
2024-04-04T15:28:50.379Z,57.44
2024-04-04T15:31:16.956Z,57.96
2024-04-04T15:33:46.561Z,60.10
2024-04-04T15:36:14.372Z,61.92
2024-04-04T15:38:42.248Z,65.47
2024-04-04T15:41:08.958Z,70.14
2024-04-04T15:43:36.768Z,64.34
2024-04-04T15:46:04.060Z,56.51
2024-04-04T15:48:31.320Z,53.21
2024-04-04T15:50:59.097Z,54.23
2024-04-04T15:53:26.618Z,55.91
2024-04-04T15:55:54.262Z,57.38
2024-04-04T15:58:21.477Z,60.76
2024-04-04T16:00:48.965Z,61.12
2024-04-04T16:03:16.502Z,60.12
2024-04-04T16:05:43.256Z,59.72
2024-04-04T16:08:15.787Z,64.78
2024-04-04T16:10:44.249Z,68.67
2024-04-04T16:13:10.753Z,67.91
2024-04-04T16:15:38.769Z,60.69
2024-04-04T16:18:07.008Z,54.07
2024-04-04T16:20:37.391Z,51.49
2024-04-04T16:23:04.564Z,51.72
2024-04-04T16:25:35.377Z,53.81
2024-04-04T16:28:05.140Z,55.89
2024-04-04T16:30:32.284Z,55.98
2024-04-04T16:32:58.793Z,56.12
2024-04-04T16:35:25.701Z,58.65
2024-04-04T16:37:53.512Z,62.52
2024-04-04T16:40:21.828Z,70.43
2024-04-04T16:42:59.681Z,67.94
2024-04-04T16:45:27.468Z,61.39
2024-04-04T16:47:58.079Z,52.53
2024-04-04T16:50:30.884Z,50.28
2024-04-04T16:53:01.848Z,51.25
2024-04-04T16:55:28.591Z,52.58
2024-04-04T16:57:55.875Z,53.58
2024-04-04T17:00:23.178Z,53.65
2024-04-04T17:02:50.206Z,54.94
2024-04-04T17:05:17.973Z,57.80
2024-04-04T17:07:47.845Z,58.32
2024-04-04T17:10:14.675Z,59.09
2024-04-04T17:12:41.219Z,60.21
2024-04-04T17:15:08.055Z,60.83
2024-04-04T17:17:35.347Z,60.88
2024-04-04T17:20:01.948Z,61.32
2024-04-04T17:22:31.259Z,67.92
2024-04-04T17:24:59.074Z,76.51
2024-04-04T17:27:26.004Z,71.58
2024-04-04T17:29:52.862Z,64.62
2024-04-04T17:32:20.995Z,54.01
2024-04-04T17:34:52.064Z,52.13
2024-04-04T17:37:20.213Z,54.44
2024-04-04T17:39:48.194Z,55.55
2024-04-04T17:42:15.469Z,58.02
2024-04-04T17:44:43.058Z,61.41
2024-04-04T17:47:11.314Z,65.81
2024-04-04T17:49:38.564Z,70.09
2024-04-04T17:52:05.551Z,63.43
2024-04-04T17:54:33.673Z,54.90
2024-04-04T17:57:06.266Z,53.63
2024-04-04T17:59:37.128Z,54.10
2024-04-04T18:02:09.077Z,55.91
2024-04-04T18:04:37.426Z,61.74
2024-04-04T18:07:10.009Z,66.87
2024-04-04T18:09:37.231Z,61.88
2024-04-04T18:12:07.279Z,59.99
2024-04-04T18:14:44.277Z,54.04
2024-04-04T18:17:10.980Z,53.29
2024-04-04T18:19:40.101Z,56.47
2024-04-04T18:22:07.235Z,58.89
2024-04-04T18:24:33.769Z,63.63
2024-04-04T18:27:02.433Z,66.13
2024-04-04T18:29:36.609Z,62.37
2024-04-04T18:32:04.409Z,59.56
2024-04-04T18:34:34.707Z,54.49
2024-04-04T18:37:05.454Z,52.86
2024-04-04T18:39:35.480Z,55.33
2024-04-04T18:42:02.574Z,57.17
2024-04-04T18:44:29.577Z,58.27
2024-04-04T18:46:57.412Z,61.12
2024-04-04T18:49:28.929Z,67.07
2024-04-04T18:51:56.680Z,64.82
2024-04-04T18:54:23.724Z,63.29
2024-04-04T18:56:53.050Z,57.38
2024-04-04T18:59:20.629Z,52.91
2024-04-04T19:01:47.753Z,53.60
2024-04-04T19:04:14.210Z,54.36
2024-04-04T19:06:41.070Z,59.00
2024-04-04T19:09:07.945Z,63.76
2024-04-04T19:11:34.913Z,65.46
2024-04-04T19:14:02.543Z,65.24
2024-04-04T19:16:29.519Z,61.36
2024-04-04T19:18:56.377Z,55.96
2024-04-04T19:21:23.466Z,52.71
2024-04-04T19:23:53.419Z,54.66
2024-04-04T19:26:22.576Z,57.25
2024-04-04T19:28:50.683Z,59.85
2024-04-04T19:31:17.460Z,62.83
2024-04-04T19:33:44.272Z,68.39
2024-04-04T19:36:12.530Z,64.19
2024-04-04T19:38:39.380Z,62.77
2024-04-04T19:41:06.175Z,59.33
2024-04-04T19:43:33.056Z,53.26
2024-04-04T19:46:06.507Z,53.69
2024-04-04T19:48:37.835Z,54.84
2024-04-04T19:51:05.312Z,59.38
2024-04-04T19:53:33.021Z,61.35
2024-04-04T19:55:59.908Z,65.54
2024-04-04T19:58:27.675Z,65.30
2024-04-04T20:01:00.955Z,64.04
2024-04-04T20:03:29.843Z,60.36
2024-04-04T20:05:59.521Z,53.95
2024-04-04T20:08:27.798Z,52.87
2024-04-04T20:11:03.151Z,55.34
2024-04-04T20:13:31.906Z,57.54
2024-04-04T20:15:58.866Z,59.83
2024-04-04T20:18:25.735Z,64.63
2024-04-04T20:20:56.586Z,68.09
2024-04-04T20:23:23.036Z,63.77
2024-04-04T20:25:51.171Z,57.59
2024-04-04T20:28:17.899Z,57.03
2024-04-04T20:30:47.689Z,57.81
2024-04-04T20:33:17.886Z,62.32
2024-04-04T20:35:49.151Z,66.04
2024-04-04T20:38:16.597Z,63.52
2024-04-04T20:40:45.509Z,57.43
2024-04-04T20:43:14.847Z,55.42
2024-04-04T20:45:41.653Z,57.31
2024-04-04T20:48:14.062Z,62.33
2024-04-04T20:50:42.423Z,64.81
2024-04-04T20:53:15.218Z,63.12
2024-04-04T20:55:43.570Z,59.14
2024-04-04T20:58:12.711Z,56.54
2024-04-04T21:00:42.037Z,56.73
2024-04-04T21:03:12.672Z,60.59
2024-04-04T21:05:39.630Z,65.11
2024-04-04T21:08:10.552Z,62.86
2024-04-04T21:10:37.707Z,62.08
2024-04-04T21:13:05.166Z,58.48
2024-04-04T21:15:32.154Z,54.08
2024-04-04T21:18:06.912Z,54.34
2024-04-04T21:20:37.217Z,57.62
2024-04-04T21:23:03.944Z,61.43
2024-04-04T21:25:34.964Z,65.73
2024-04-04T21:28:01.850Z,67.37
2024-04-04T21:30:31.442Z,65.30
2024-04-04T21:32:58.152Z,60.68
2024-04-04T21:35:24.755Z,54.28
2024-04-04T21:37:51.363Z,51.38
2024-04-04T21:40:17.867Z,54.22
2024-04-04T21:42:44.692Z,57.73
2024-04-04T21:45:12.934Z,60.72
2024-04-04T21:47:41.642Z,59.80
2024-04-04T21:50:09.429Z,60.24
2024-04-04T21:52:38.569Z,66.16
2024-04-04T21:55:05.406Z,66.55
2024-04-04T21:57:34.004Z,64.49
2024-04-04T22:00:09.433Z,58.70
2024-04-04T22:02:36.744Z,57.45
2024-04-04T22:05:04.992Z,60.51
2024-04-04T22:07:31.846Z,64.53
2024-04-04T22:09:59.204Z,62.63
2024-04-04T22:12:25.831Z,58.53
2024-04-04T22:14:54.821Z,57.85
2024-04-04T22:17:21.346Z,59.16
2024-04-04T22:19:47.853Z,63.36
2024-04-04T22:22:14.777Z,65.86
2024-04-04T22:24:42.467Z,63.09
2024-04-04T22:27:12.921Z,58.31
2024-04-04T22:29:39.415Z,55.23
2024-04-04T22:32:09.373Z,59.70
2024-04-04T22:34:36.486Z,63.40
2024-04-04T22:37:03.676Z,65.06
2024-04-04T22:39:30.564Z,61.95
2024-04-04T22:41:58.212Z,57.24
2024-04-04T22:44:26.037Z,58.78
2024-04-04T22:46:52.963Z,61.85
2024-04-04T22:49:20.170Z,66.24
2024-04-04T22:51:47.000Z,65.16
2024-04-04T22:54:14.326Z,61.29
2024-04-04T22:56:41.050Z,55.83
2024-04-04T22:59:11.853Z,52.81
2024-04-04T23:01:38.696Z,54.06
2024-04-04T23:04:07.171Z,54.79
2024-04-04T23:06:35.934Z,57.56
2024-04-04T23:09:03.969Z,61.76
2024-04-04T23:11:30.534Z,66.34
2024-04-04T23:13:57.046Z,64.02
2024-04-04T23:16:23.479Z,59.91
2024-04-04T23:18:50.020Z,54.49
2024-04-04T23:21:17.162Z,55.84
2024-04-04T23:23:43.973Z,60.87
2024-04-04T23:26:10.785Z,64.05
2024-04-04T23:28:39.330Z,63.00
2024-04-04T23:31:07.253Z,59.77
2024-04-04T23:33:33.710Z,55.37
2024-04-04T23:36:03.695Z,57.75
2024-04-04T23:38:30.398Z,61.12
2024-04-04T23:40:57.352Z,64.52
2024-04-04T23:43:24.764Z,65.29
2024-04-04T23:46:06.953Z,59.35
2024-04-04T23:48:33.933Z,59.28
2024-04-04T23:51:02.185Z,62.27
2024-04-04T23:53:28.816Z,64.91
2024-04-04T23:55:55.598Z,61.79
2024-04-04T23:58:22.071Z,59.39
